map of PLM home
PLM - Airport
Location
City:  Palembang, Sumatera Selatan, Indonesia
Name:Sultan Mahmud Badaruddin II International Airport
ICAO:WIPP
IATA:PLM

Details
Type:Airport (Aerodrome, Airfield)
Use:International (customs port of entry)
Latitude:253'54"S (-2.898249)
Longitude:10442'00"E (104.699903)
Datum:WGS 1984
Elevation:49 ft (15 m)
Variation:0.42E (WMM2015 magnetic declination)
-0.01 annual change
Runways:1
Longest:8202 × 148 ft (2500 × 45 m), paved

Time
Time Zone:UTC+7
Local Time:

Weather
METAR:WIPP 181630Z 32002KT 2000 BR FEW012 24/24 Q1012

Related Locations
Nearby:
Farthest:NVA: 12450 mi / 20037 km
Neiva [Benito Salas Airport], HUI, CO

Find:

   beyond  
but within

Other Information
Maps:
NOTAMs:
Links:
Sources:

  
  • flag of Indonesia
  • flag of Sumatera Selatan
  

Sectional Chart

Flight Planning
at skyvector.com

Satellite Image

Google Maps Satellite view

 

Copyright © 2004-2018 Karl L. Swartz. All rights reserved.
The Great Circle Mapper name and logo are trademarks of the Great Circle Mapper.
All other trademarks mentioned herein belong to their respective owners.
Please see credits for attibutions and further copyright information.

  Follow gcmap on Facebook Follow gcmap on Twitter Follow gcmap on Google+ GCmap on LinkedIn

hCard Microformat

Geo Microformat